Time;durP1;ratioP1;P1;durP2;ratioP2;P2;SDS_P1;SDS_P2;PMS_P1;PMS_P2;Temp;Humidity;BMP_temperature;BMP_pressure;BME280_temperature;BME280_humidity;BME280_pressure;Samples;Min_cycle;Max_cycle;Signal;HPM_P1;HPM_P2
2023/04/06 00:01:46;;;;;;;7.38;4.32;;;-0.20;99.90;;;;;;5026704;28;20041;-84
2023/04/06 00:04:12;;;;;;;7.28;3.63;;;-0.20;99.90;;;;;;5022926;28;20048;-81
2023/04/06 00:06:39;;;;;;;5.97;3.85;;;-0.20;99.90;;;;;;5018800;28;20443;-81
2023/04/06 00:09:05;;;;;;;17.00;4.35;;;-0.20;99.90;;;;;;5027537;28;20355;-80
2023/04/06 00:11:31;;;;;;;8.60;4.20;;;-0.10;99.90;;;;;;5034261;28;20037;-81
2023/04/06 00:13:58;;;;;;;8.55;4.03;;;0.00;99.90;;;;;;5025407;28;20370;-81
2023/04/06 00:16:24;;;;;;;9.57;4.13;;;0.00;99.90;;;;;;5026515;28;20030;-81
2023/04/06 00:18:50;;;;;;;8.93;5.18;;;0.10;99.90;;;;;;5031696;28;20034;-82
2023/04/06 00:21:16;;;;;;;10.10;5.13;;;0.20;99.90;;;;;;5026530;28;20030;-81
2023/04/06 00:23:42;;;;;;;15.30;8.27;;;0.10;99.90;;;;;;5021173;28;20034;-89
2023/04/06 00:26:10;;;;;;;10.32;5.65;;;0.10;99.90;;;;;;5029168;28;20463;-81
2023/04/06 00:28:39;;;;;;;10.30;5.95;;;0.20;99.90;;;;;;5030322;28;20039;-81
2023/04/06 00:31:06;;;;;;;10.52;4.88;;;0.30;99.90;;;;;;5027508;28;20390;-81
2023/04/06 00:33:32;;;;;;;8.88;4.65;;;0.30;99.90;;;;;;5024175;28;20030;-81
2023/04/06 00:35:59;;;;;;;6.32;3.72;;;0.30;99.90;;;;;;5029536;28;20029;-81
2023/04/06 00:38:25;;;;;;;6.80;3.95;;;0.20;99.90;;;;;;5031778;28;20048;-81
2023/04/06 00:40:51;;;;;;;5.70;3.00;;;0.10;99.90;;;;;;5030269;28;20422;-80
2023/04/06 00:43:17;;;;;;;7.22;3.92;;;0.00;99.90;;;;;;5031011;28;20045;-81
2023/04/06 00:45:44;;;;;;;5.75;3.92;;;-0.10;99.90;;;;;;5031637;28;20040;-82
2023/04/06 00:48:11;;;;;;;7.65;3.80;;;-0.20;99.90;;;;;;5031993;28;20374;-81
2023/04/06 00:50:37;;;;;;;6.82;4.28;;;-0.20;99.90;;;;;;5031711;28;20034;-81
2023/04/06 00:53:03;;;;;;;8.27;3.90;;;-0.20;99.90;;;;;;5027614;28;20255;-80
2023/04/06 00:55:30;;;;;;;6.72;3.20;;;-0.30;99.90;;;;;;5031773;28;20045;-80
2023/04/06 00:58:00;;;;;;;7.60;4.80;;;-0.50;99.90;;;;;;5026450;28;20042;-80
2023/04/06 01:00:27;;;;;;;6.88;3.95;;;-0.50;99.90;;;;;;5025991;28;20041;-80
2023/04/06 01:03:01;;;;;;;7.38;4.00;;;-0.50;1.00;;;;;;5034150;28;20033;-80
2023/04/06 01:05:40;;;;;;;7.57;4.70;;;-0.50;1.00;;;;;;5027048;28;20386;-80
2023/04/06 01:08:09;;;;;;;8.00;4.35;;;-0.40;1.00;;;;;;5020950;28;20471;-80
2023/04/06 01:10:35;;;;;;;8.02;3.90;;;-0.40;1.00;;;;;;5046547;28;20042;-81
2023/04/06 01:13:12;;;;;;;7.70;3.80;;;-0.60;99.90;;;;;;5044606;28;20033;-81
2023/04/06 01:15:52;;;;;;;8.07;3.88;;;-0.70;1.00;;;;;;5028703;28;20030;-81
2023/04/06 01:18:29;;;;;;;7.47;4.35;;;-0.80;1.00;;;;;;5030538;28;20046;-80
2023/04/06 01:21:21;;;;;;;8.45;4.78;;;-0.80;1.00;;;;;;5031535;28;20045;-80
2023/04/06 01:24:08;;;;;;;6.82;3.95;;;-0.90;1.00;;;;;;5029723;28;20045;-81
2023/04/06 01:26:58;;;;;;;6.90;4.47;;;-1.00;1.00;;;;;;5030660;28;20581;-81
2023/04/06 01:29:29;;;;;;;6.68;4.10;;;-1.10;1.00;;;;;;5024678;28;20045;-81
2023/04/06 01:31:55;;;;;;;8.23;4.53;;;-1.20;1.00;;;;;;5028692;28;20041;-81
2023/04/06 01:34:22;;;;;;;8.00;4.55;;;-1.20;1.00;;;;;;5034141;28;20040;-81
2023/04/06 01:36:48;;;;;;;9.20;4.32;;;-1.20;1.00;;;;;;5012887;28;20041;-81
2023/04/06 01:39:22;;;;;;;9.20;4.78;;;-1.00;1.00;;;;;;5043175;28;20042;-79
2023/04/06 01:41:48;;;;;;;6.88;3.60;;;-1.10;1.00;;;;;;5035222;28;20049;-81
2023/04/06 01:44:18;;;;;;;7.47;4.85;;;-1.20;1.00;;;;;;5023815;28;20061;-81
2023/04/06 01:46:47;;;;;;;7.55;4.00;;;-1.20;1.00;;;;;;5030822;28;20045;-84
2023/04/06 01:49:17;;;;;;;10.18;4.78;;;-1.30;1.00;;;;;;5042534;28;20030;-80
2023/04/06 01:51:48;;;;;;;7.72;3.50;;;-1.10;1.00;;;;;;5020236;28;20046;-81
2023/04/06 01:54:14;;;;;;;6.97;3.92;;;-1.00;1.00;;;;;;5024384;28;20089;-80
2023/04/06 01:56:53;;;;;;;7.10;4.68;;;-1.10;1.00;;;;;;5038249;28;20045;-79
2023/04/06 01:59:29;;;;;;;9.30;4.68;;;-1.10;1.00;;;;;;5030402;28;20395;-80
2023/04/06 02:01:56;;;;;;;8.32;5.10;;;-1.20;1.00;;;;;;5027788;28;20041;-80
2023/04/06 02:04:25;;;;;;;8.35;4.30;;;-1.30;1.00;;;;;;5036328;28;20046;-80
2023/04/06 02:06:58;;;;;;;7.15;4.82;;;-1.20;1.00;;;;;;5024913;28;20090;-80
2023/04/06 02:09:27;;;;;;;10.98;4.63;;;-1.10;1.00;;;;;;5033399;28;20417;-81
2023/04/06 02:11:55;;;;;;;8.00;4.60;;;-1.10;1.00;;;;;;5028428;28;20041;-80
2023/04/06 02:14:26;;;;;;;8.30;4.50;;;-1.30;1.00;;;;;;5032525;28;20470;-80
2023/04/06 02:16:55;;;;;;;7.22;4.63;;;-1.40;1.00;;;;;;5017104;28;20407;-81
2023/04/06 02:19:22;;;;;;;7.90;4.60;;;-1.30;1.00;;;;;;5027785;28;20056;-81
2023/04/06 02:21:48;;;;;;;9.43;4.95;;;-1.20;1.00;;;;;;5026950;28;20501;-80
2023/04/06 02:24:14;;;;;;;8.77;4.68;;;-1.30;1.00;;;;;;5023266;28;20029;-80
2023/04/06 02:26:41;;;;;;;7.55;4.63;;;-1.30;1.00;;;;;;5037735;28;20045;-81
2023/04/06 02:29:07;;;;;;;10.90;5.53;;;-1.40;1.00;;;;;;5023292;28;20512;-80
2023/04/06 02:31:33;;;;;;;7.57;4.90;;;-1.50;1.00;;;;;;5029517;28;20029;-81
2023/04/06 02:34:01;;;;;;;9.02;4.45;;;-1.50;1.00;;;;;;5017889;28;20128;-81
2023/04/06 02:36:30;;;;;;;10.65;4.95;;;-1.50;1.00;;;;;;5028425;28;20038;-81
2023/04/06 02:38:56;;;;;;;9.32;5.07;;;-1.50;1.00;;;;;;5038306;28;20030;-81
2023/04/06 02:41:22;;;;;;;7.90;5.45;;;-1.70;1.00;;;;;;5033647;28;20498;-80
2023/04/06 02:43:49;;;;;;;9.00;5.15;;;-1.70;1.00;;;;;;5030841;28;20545;-82
2023/04/06 02:46:28;;;;;;;10.27;6.38;;;-1.70;1.00;;;;;;5021769;28;20060;-80
2023/04/06 02:48:54;;;;;;;11.85;6.32;;;-1.70;1.00;;;;;;5015949;28;20046;-81
2023/04/06 02:51:21;;;;;;;10.75;5.72;;;-1.60;1.00;;;;;;5028628;28;20041;-80
2023/04/06 02:53:53;;;;;;;10.38;6.00;;;-1.50;1.00;;;;;;5027188;28;20049;-81
2023/04/06 02:56:21;;;;;;;10.13;5.60;;;-1.50;1.00;;;;;;5032027;28;20037;-81
2023/04/06 02:58:50;;;;;;;9.88;5.50;;;-1.60;1.00;;;;;;5027027;28;20041;-80
2023/04/06 03:01:17;;;;;;;9.80;5.63;;;-1.70;1.00;;;;;;5030022;28;20044;-80
2023/04/06 03:03:44;;;;;;;15.40;6.40;;;-1.90;1.00;;;;;;5031505;28;20060;-81
2023/04/06 03:06:18;;;;;;;9.77;4.82;;;-1.90;1.00;;;;;;5028554;28;20042;-80
2023/04/06 03:08:44;;;;;;;11.13;5.88;;;-1.90;1.00;;;;;;5027650;28;20037;-80
2023/04/06 03:11:10;;;;;;;12.45;6.43;;;-1.90;1.00;;;;;;5039263;28;20045;-80
2023/04/06 03:13:40;;;;;;;11.90;6.15;;;-1.90;1.00;;;;;;5024533;28;20558;-85
2023/04/06 03:16:07;;;;;;;10.40;5.80;;;-1.90;1.00;;;;;;5023759;28;20052;-80
2023/04/06 03:18:34;;;;;;;9.43;5.88;;;-1.90;1.00;;;;;;5031373;28;20037;-80
2023/04/06 03:21:01;;;;;;;10.55;5.47;;;-1.90;1.00;;;;;;5022516;28;20066;-81
2023/04/06 03:23:35;;;;;;;10.88;5.88;;;-1.90;1.00;;;;;;5023676;28;20038;-80
2023/04/06 03:26:03;;;;;;;8.73;5.40;;;-2.00;1.00;;;;;;5037891;28;20046;-80
2023/04/06 03:28:29;;;;;;;10.77;7.40;;;-2.10;1.00;;;;;;5005383;28;20033;-79
2023/04/06 03:30:59;;;;;;;12.88;6.32;;;-2.10;1.00;;;;;;5037475;28;20040;-80
2023/04/06 03:33:44;;;;;;;12.45;6.47;;;-2.10;1.00;;;;;;5037281;28;20446;-81
2023/04/06 03:36:17;;;;;;;8.95;5.80;;;-2.00;1.00;;;;;;5028307;28;20400;-81
2023/04/06 03:38:44;;;;;;;9.38;6.18;;;-2.00;1.00;;;;;;5032451;28;20466;-81
2023/04/06 03:41:13;;;;;;;10.52;5.75;;;-2.10;1.00;;;;;;5033362;28;20360;-80
2023/04/06 03:43:42;;;;;;;11.40;5.85;;;-2.00;1.00;;;;;;5011489;28;20056;-84
2023/04/06 03:46:09;;;;;;;11.73;6.07;;;-2.00;1.00;;;;;;5038272;28;20493;-80
2023/04/06 03:48:36;;;;;;;11.68;7.53;;;-2.10;1.00;;;;;;5021982;28;20057;-81
2023/04/06 03:51:05;;;;;;;11.10;6.47;;;-2.10;1.00;;;;;;5018052;28;20037;-81
2023/04/06 03:53:31;;;;;;;12.23;6.78;;;-2.10;1.00;;;;;;5023715;28;20409;-80
2023/04/06 03:55:57;;;;;;;10.85;6.55;;;-2.10;1.00;;;;;;5018758;28;20030;-83
2023/04/06 03:58:23;;;;;;;11.25;6.38;;;-2.10;1.00;;;;;;5025151;28;20036;-87
2023/04/06 04:00:52;;;;;;;10.98;6.35;;;-2.10;1.00;;;;;;5009202;28;20048;-81
2023/04/06 04:03:18;;;;;;;12.02;6.82;;;-2.20;1.00;;;;;;5025257;28;20083;-80
2023/04/06 04:05:44;;;;;;;15.07;8.05;;;-2.30;1.00;;;;;;5025176;28;20057;-80
2023/04/06 04:08:11;;;;;;;15.80;7.97;;;-2.20;1.00;;;;;;5011803;28;20041;-82
2023/04/06 04:10:37;;;;;;;13.23;8.18;;;-2.20;1.00;;;;;;5022007;28;20038;-79
2023/04/06 04:13:04;;;;;;;11.85;7.68;;;-2.20;1.00;;;;;;5032075;28;20033;-80
2023/04/06 04:15:30;;;;;;;17.17;8.48;;;-2.20;1.00;;;;;;5033313;28;20497;-79
2023/04/06 04:17:56;;;;;;;18.88;10.10;;;-2.10;1.00;;;;;;5032084;28;20048;-79
2023/04/06 04:20:23;;;;;;;21.45;9.00;;;-2.20;1.00;;;;;;5031512;28;20029;-79
2023/04/06 04:22:49;;;;;;;12.52;7.95;;;-2.20;1.00;;;;;;5033843;28;20046;-79
2023/04/06 04:25:15;;;;;;;14.00;8.90;;;-2.10;1.00;;;;;;5028676;28;20045;-80
2023/04/06 04:27:46;;;;;;;13.07;8.45;;;-2.00;1.00;;;;;;5029047;28;20042;-79
2023/04/06 04:30:14;;;;;;;16.33;9.30;;;-2.10;1.00;;;;;;5027715;28;20066;-80
2023/04/06 04:32:41;;;;;;;17.63;9.52;;;-2.10;1.00;;;;;;5031750;28;20056;-81
2023/04/06 04:35:09;;;;;;;18.52;9.38;;;-2.10;1.00;;;;;;5030230;28;20075;-81
2023/04/06 04:37:41;;;;;;;20.35;10.52;;;-2.10;1.00;;;;;;5031223;28;20053;-80
2023/04/06 04:40:09;;;;;;;16.98;9.45;;;-2.00;1.00;;;;;;5029627;28;20044;-80
2023/04/06 04:42:50;;;;;;;17.02;10.25;;;-2.10;1.00;;;;;;5009627;28;20084;-80
2023/04/06 04:45:24;;;;;;;17.70;9.93;;;-2.10;1.00;;;;;;5009374;28;20445;-80
2023/04/06 04:47:50;;;;;;;18.95;10.15;;;-2.10;1.00;;;;;;5010441;28;20046;-81
2023/04/06 04:50:18;;;;;;;19.45;10.50;;;-2.00;1.00;;;;;;5015555;28;20425;-80
2023/04/06 04:52:47;;;;;;;16.55;9.52;;;-2.00;1.00;;;;;;5016702;28;20037;-80
2023/04/06 04:55:17;;;;;;;16.30;8.88;;;-2.00;1.00;;;;;;5032406;28;20491;-80
2023/04/06 04:57:46;;;;;;;20.10;10.63;;;-2.00;1.00;;;;;;5026556;28;20403;-80
2023/04/06 05:00:14;;;;;;;20.92;10.48;;;-1.90;1.00;;;;;;5006726;28;20037;-80
2023/04/06 05:02:43;;;;;;;17.92;10.40;;;-1.80;1.00;;;;;;5012640;28;20046;-79
2023/04/06 05:05:20;;;;;;;16.70;9.15;;;-1.70;1.00;;;;;;5022246;28;20056;-79
2023/04/06 05:07:46;;;;;;;16.40;9.82;;;-1.60;1.00;;;;;;5032388;28;20048;-79
2023/04/06 05:10:22;;;;;;;16.50;9.75;;;-1.60;1.00;;;;;;5007662;28;20045;-79
2023/04/06 05:12:55;;;;;;;13.52;9.73;;;-1.60;1.00;;;;;;5033371;28;20041;-80
2023/04/06 05:15:21;;;;;;;21.23;10.77;;;-1.50;1.00;;;;;;5034339;28;20062;-79
2023/04/06 05:17:51;;;;;;;16.23;9.18;;;-1.50;1.00;;;;;;5038786;28;20041;-79
2023/04/06 05:20:23;;;;;;;18.08;9.75;;;-1.40;1.00;;;;;;5025978;28;20053;-79
2023/04/06 05:22:51;;;;;;;17.10;9.43;;;-1.40;1.00;;;;;;5036462;28;20056;-79
2023/04/06 05:25:17;;;;;;;19.23;9.15;;;-1.30;1.00;;;;;;5032640;28;20044;-79
2023/04/06 05:27:45;;;;;;;16.05;8.68;;;-1.20;1.00;;;;;;5034702;28;20049;-79
2023/04/06 05:30:27;;;;;;;16.20;8.65;;;-1.10;1.00;;;;;;5024797;28;20052;-79
2023/04/06 05:32:54;;;;;;;22.65;12.35;;;-1.00;1.00;;;;;;5027793;28;20029;-79
2023/04/06 05:35:22;;;;;;;37.72;17.48;;;-0.80;1.00;;;;;;5035621;28;20048;-79
2023/04/06 05:37:52;;;;;;;34.13;16.00;;;-0.50;1.00;;;;;;5033924;28;20474;-79
2023/04/06 05:40:21;;;;;;;21.92;10.90;;;0.50;1.00;;;;;;5033777;28;20045;-76
2023/04/06 05:42:49;;;;;;;13.85;9.05;;;1.50;1.00;;;;;;5027366;28;20089;-81
2023/04/06 05:45:18;;;;;;;15.05;9.02;;;2.30;99.90;;;;;;5012039;28;20038;-77
2023/04/06 05:47:49;;;;;;;13.20;8.00;;;3.10;99.90;;;;;;5011327;28;20415;-77
2023/04/06 05:50:23;;;;;;;10.82;7.80;;;3.80;99.90;;;;;;5030079;28;20046;-77
2023/04/06 05:52:50;;;;;;;11.43;7.43;;;4.40;99.90;;;;;;5028847;28;20045;-78
2023/04/06 05:55:20;;;;;;;11.63;8.13;;;4.80;99.90;;;;;;5030038;28;20037;-78
2023/04/06 05:57:52;;;;;;;11.50;7.32;;;5.00;99.90;;;;;;5023411;28;20514;-78
2023/04/06 06:00:20;;;;;;;13.82;7.35;;;5.20;99.90;;;;;;5033750;28;20042;-78
2023/04/06 06:02:57;;;;;;;11.40;7.85;;;5.40;99.90;;;;;;5041386;28;20045;-80
2023/04/06 06:05:28;;;;;;;9.90;7.63;;;5.90;99.90;;;;;;5032774;28;20057;-85
2023/04/06 06:07:57;;;;;;;18.15;7.15;;;5.70;99.90;;;;;;5032296;28;20037;-78
2023/04/06 06:10:24;;;;;;;12.73;8.43;;;5.50;99.90;;;;;;5023273;28;20371;-77
2023/04/06 06:12:51;;;;;;;10.52;6.53;;;5.00;99.90;;;;;;5037178;28;20041;-78
2023/04/06 06:15:17;;;;;;;9.52;6.25;;;4.90;99.90;;;;;;5027718;28;20042;-77
2023/04/06 06:17:47;;;;;;;13.23;8.55;;;5.10;99.90;;;;;;5025659;28;20045;-78
2023/04/06 06:20:13;;;;;;;18.70;9.82;;;5.50;99.90;;;;;;5025026;28;20038;-81
2023/04/06 06:22:40;;;;;;;12.50;7.80;;;6.10;99.90;;;;;;5028438;28;20467;-80
2023/04/06 06:25:09;;;;;;;11.48;8.48;;;6.20;99.90;;;;;;5028960;28;20429;-80
2023/04/06 06:27:36;;;;;;;14.32;7.60;;;7.10;99.90;;;;;;5032986;28;20033;-81
2023/04/06 06:30:05;;;;;;;11.95;7.40;;;7.60;99.90;;;;;;5029782;28;20037;-81
2023/04/06 06:32:32;;;;;;;10.45;6.72;;;7.90;96.90;;;;;;5036132;28;20038;-82
2023/04/06 06:34:59;;;;;;;9.80;7.18;;;8.30;93.60;;;;;;5018778;28;20494;-81
2023/04/06 06:37:27;;;;;;;10.25;6.97;;;8.20;86.90;;;;;;5027886;28;20037;-81
2023/04/06 06:39:54;;;;;;;12.63;7.63;;;8.30;82.60;;;;;;5032218;28;20038;-82
2023/04/06 06:42:21;;;;;;;13.82;8.27;;;8.50;75.10;;;;;;5026276;28;20372;-81
2023/04/06 06:45:08;;;;;;;10.60;7.95;;;8.60;75.30;;;;;;5038044;28;20041;-81
2023/04/06 06:47:34;;;;;;;9.43;6.88;;;8.90;72.50;;;;;;5029475;28;20370;-82
2023/04/06 06:50:01;;;;;;;9.02;6.88;;;8.60;68.70;;;;;;5028553;28;20485;-81
2023/04/06 06:52:28;;;;;;;8.27;6.43;;;8.50;70.00;;;;;;5020561;28;20042;-79
2023/04/06 06:54:56;;;;;;;12.25;8.10;;;8.20;68.10;;;;;;5020546;28;20049;-81
2023/04/06 06:57:22;;;;;;;9.90;7.00;;;7.80;72.90;;;;;;5020315;28;20096;-81
2023/04/06 06:59:48;;;;;;;10.45;7.32;;;8.00;72.60;;;;;;5037573;28;20386;-81
2023/04/06 07:02:15;;;;;;;11.77;7.18;;;8.30;72.80;;;;;;5024584;28;20048;-80
2023/04/06 07:04:41;;;;;;;13.48;7.38;;;8.20;74.30;;;;;;5024223;28;20109;-81
2023/04/06 07:07:08;;;;;;;14.27;7.07;;;8.30;69.80;;;;;;5035781;28;20030;-81
2023/04/06 07:09:35;;;;;;;12.57;7.28;;;8.20;65.70;;;;;;5036218;28;20034;-83
2023/04/06 07:12:01;;;;;;;12.25;7.85;;;8.20;66.40;;;;;;5025878;28;20386;-80
2023/04/06 07:14:28;;;;;;;9.75;7.22;;;8.10;65.40;;;;;;5026421;28;20037;-81
2023/04/06 07:16:54;;;;;;;11.15;7.03;;;8.40;63.60;;;;;;5021011;28;20041;-81
2023/04/06 07:19:21;;;;;;;10.30;6.70;;;8.40;64.90;;;;;;5026214;28;20060;-80
2023/04/06 07:21:49;;;;;;;12.55;7.45;;;8.30;62.70;;;;;;5016417;28;20030;-78
2023/04/06 07:24:15;;;;;;;11.45;7.75;;;8.20;60.60;;;;;;5041663;28;20041;-75
2023/04/06 07:26:42;;;;;;;9.48;7.35;;;8.50;62.90;;;;;;5033440;28;20117;-77
2023/04/06 07:29:08;;;;;;;10.27;6.38;;;8.70;59.50;;;;;;5030453;28;20046;-78
2023/04/06 07:31:35;;;;;;;10.93;7.90;;;8.70;59.50;;;;;;5025491;28;20037;-77
2023/04/06 07:34:02;;;;;;;12.20;7.50;;;8.90;58.90;;;;;;5031547;28;20041;-78
2023/04/06 07:36:29;;;;;;;10.95;8.70;;;9.10;58.40;;;;;;5035625;28;20495;-78
2023/04/06 07:38:55;;;;;;;11.32;7.97;;;9.10;56.70;;;;;;5034322;28;20034;-77
2023/04/06 07:41:23;;;;;;;8.70;7.70;;;9.30;56.50;;;;;;5023505;28;20046;-76
2023/04/06 07:43:50;;;;;;;9.65;7.32;;;9.80;50.20;;;;;;5024525;28;20050;-77
2023/04/06 07:46:17;;;;;;;11.48;7.32;;;9.80;50.20;;;;;;5021477;28;20053;-76
2023/04/06 07:48:43;;;;;;;8.85;7.30;;;9.90;47.90;;;;;;5034853;28;20052;-77
2023/04/06 07:51:13;;;;;;;13.70;8.30;;;10.10;44.60;;;;;;5025923;28;20463;-77
2023/04/06 07:53:40;;;;;;;14.05;7.50;;;10.00;45.70;;;;;;5028423;28;20049;-77
2023/04/06 07:56:07;;;;;;;10.23;7.22;;;10.30;42.40;;;;;;5022826;28;20034;-77
2023/04/06 07:58:33;;;;;;;11.35;7.07;;;10.60;40.60;;;;;;5032638;28;20044;-78
2023/04/06 08:00:59;;;;;;;12.38;7.07;;;10.70;41.60;;;;;;5018083;28;20360;-77
2023/04/06 08:03:26;;;;;;;13.45;7.40;;;10.50;41.50;;;;;;5025565;28;20030;-77
2023/04/06 08:05:52;;;;;;;12.05;8.02;;;10.10;44.90;;;;;;5019850;28;20494;-77
2023/04/06 08:08:21;;;;;;;10.75;7.55;;;10.40;43.70;;;;;;5030903;28;20037;-77
2023/04/06 08:10:48;;;;;;;12.88;7.78;;;10.40;41.60;;;;;;5023656;28;20026;-77
2023/04/06 08:13:15;;;;;;;11.07;7.95;;;10.30;41.40;;;;;;5024593;28;20041;-79
2023/04/06 08:15:41;;;;;;;16.45;7.60;;;10.70;40.80;;;;;;5020919;28;20050;-78
2023/04/06 08:18:08;;;;;;;10.90;8.10;;;10.90;37.30;;;;;;5030467;28;20044;-77
2023/04/06 08:20:35;;;;;;;10.30;7.53;;;11.10;37.60;;;;;;5024373;28;20052;-77
2023/04/06 08:23:01;;;;;;;10.75;7.07;;;11.30;38.20;;;;;;5032155;28;20049;-77
2023/04/06 08:25:28;;;;;;;11.75;7.63;;;11.50;36.50;;;;;;5031864;28;20045;-77
2023/04/06 08:27:54;;;;;;;11.02;8.18;;;11.50;35.50;;;;;;5020081;28;20057;-76
2023/04/06 08:30:20;;;;;;;11.57;7.50;;;10.40;39.60;;;;;;5028040;28;20044;-78
2023/04/06 08:32:47;;;;;;;10.45;6.82;;;10.70;39.70;;;;;;5024718;28;20387;-77
2023/04/06 08:35:13;;;;;;;12.48;6.97;;;11.20;39.30;;;;;;5027858;28;20041;-76
2023/04/06 08:37:40;;;;;;;13.82;7.50;;;11.50;37.70;;;;;;5039905;28;20046;-78
2023/04/06 08:40:07;;;;;;;8.30;7.18;;;11.70;36.10;;;;;;5029336;28;20052;-77
2023/04/06 08:42:39;;;;;;;9.02;6.88;;;11.90;34.60;;;;;;5030774;28;20057;-77
2023/04/06 08:45:05;;;;;;;11.85;7.75;;;12.00;34.00;;;;;;5024804;28;20064;-76
2023/04/06 08:47:32;;;;;;;11.70;7.32;;;11.80;30.80;;;;;;5026476;28;20045;-77
2023/04/06 08:50:00;;;;;;;10.85;7.28;;;11.60;33.60;;;;;;5022374;28;20045;-76
2023/04/06 08:52:27;;;;;;;10.07;7.25;;;12.10;32.70;;;;;;5024749;28;20042;-77
2023/04/06 08:54:53;;;;;;;13.40;7.53;;;12.20;31.00;;;;;;5042279;28;20026;-77
2023/04/06 08:57:20;;;;;;;12.50;7.65;;;12.20;31.40;;;;;;5032691;28;20479;-77
2023/04/06 08:59:46;;;;;;;10.48;6.95;;;11.90;34.20;;;;;;5022822;28;20040;-79
2023/04/06 09:02:18;;;;;;;9.95;6.93;;;11.80;31.80;;;;;;5030331;28;20033;-76
2023/04/06 09:04:47;;;;;;;11.52;6.97;;;12.10;30.60;;;;;;5029222;28;20041;-77
2023/04/06 09:07:15;;;;;;;13.38;7.75;;;12.30;30.00;;;;;;5027573;28;20041;-76
2023/04/06 09:09:47;;;;;;;10.27;6.57;;;12.40;29.30;;;;;;5025167;28;20034;-76
2023/04/06 09:12:27;;;;;;;10.07;6.85;;;12.30;29.20;;;;;;5020181;28;20195;-76
2023/04/06 09:14:54;;;;;;;9.43;6.97;;;12.50;29.40;;;;;;5029518;28;20052;-77
2023/04/06 09:17:22;;;;;;;9.55;6.40;;;12.50;29.60;;;;;;5024100;28;20101;-78
2023/04/06 09:19:49;;;;;;;8.27;6.05;;;12.60;29.70;;;;;;5032175;28;20040;-76
2023/04/06 09:22:15;;;;;;;10.45;7.18;;;13.10;27.90;;;;;;5025948;28;20029;-76
2023/04/06 09:24:52;;;;;;;12.40;6.00;;;13.20;27.40;;;;;;5032162;28;20030;-75
2023/04/06 09:27:30;;;;;;;10.65;6.07;;;13.40;26.60;;;;;;5031520;28;20410;-75
2023/04/06 09:30:08;;;;;;;10.50;6.72;;;14.20;24.40;;;;;;5042276;28;20036;-75
2023/04/06 09:32:51;;;;;;;11.20;6.93;;;14.10;23.50;;;;;;5026829;28;20037;-76
2023/04/06 09:35:19;;;;;;;8.02;6.32;;;14.20;23.10;;;;;;5031075;28;20037;-78
2023/04/06 09:37:51;;;;;;;9.43;6.07;;;14.70;21.70;;;;;;5033420;28;20030;-74
2023/04/06 09:40:18;;;;;;;11.10;6.13;;;14.20;21.60;;;;;;5025460;28;20034;-76
2023/04/06 09:42:46;;;;;;;9.20;6.30;;;14.20;23.00;;;;;;5024197;28;20041;-76
2023/04/06 09:45:13;;;;;;;9.30;6.30;;;14.30;22.80;;;;;;5029670;28;20478;-76
2023/04/06 09:47:43;;;;;;;8.85;6.13;;;14.20;21.30;;;;;;5027398;28;20037;-75
2023/04/06 09:50:11;;;;;;;9.60;6.07;;;14.50;20.30;;;;;;5029620;28;20097;-77
2023/04/06 09:52:50;;;;;;;9.05;6.13;;;14.60;19.50;;;;;;5032435;28;20029;-76
2023/04/06 09:55:35;;;;;;;9.20;5.35;;;14.40;18.60;;;;;;5027024;28;20382;-77
2023/04/06 09:58:06;;;;;;;9.10;5.90;;;14.60;18.40;;;;;;5029730;28;20033;-78
2023/04/06 10:00:44;;;;;;;7.93;5.60;;;14.50;19.00;;;;;;5033401;28;20048;-78
2023/04/06 10:03:23;;;;;;;10.57;6.90;;;14.00;19.70;;;;;;5031000;28;20040;-78
2023/04/06 10:05:58;;;;;;;11.30;6.15;;;13.70;20.50;;;;;;5031527;28;20042;-78
2023/04/06 10:08:27;;;;;;;10.00;6.30;;;14.00;19.80;;;;;;5033382;28;20040;-77
2023/04/06 10:10:57;;;;;;;8.35;5.97;;;13.70;20.90;;;;;;5024578;28;20038;-85
2023/04/06 10:13:24;;;;;;;9.30;6.10;;;13.10;22.50;;;;;;5032359;28;20029;-77
2023/04/06 10:15:52;;;;;;;8.65;6.15;;;13.00;22.10;;;;;;5024028;28;20104;-76
2023/04/06 10:18:21;;;;;;;12.18;6.38;;;12.60;22.80;;;;;;5031159;28;20467;-76
2023/04/06 10:21:00;;;;;;;11.13;5.93;;;12.60;23.30;;;;;;5029048;28;20034;-79
2023/04/06 10:23:32;;;;;;;11.23;6.68;;;12.80;21.30;;;;;;5018725;28;20204;-76
2023/04/06 10:26:00;;;;;;;11.75;6.70;;;12.80;22.40;;;;;;5033108;28;20045;-76
2023/04/06 10:28:35;;;;;;;8.10;5.68;;;13.00;21.50;;;;;;5017287;28;20034;-76
2023/04/06 10:31:05;;;;;;;7.93;5.32;;;13.30;20.30;;;;;;5022344;28;20035;-76
2023/04/06 10:33:32;;;;;;;7.40;6.13;;;13.40;21.20;;;;;;5029052;28;20038;-76
2023/04/06 10:36:08;;;;;;;8.85;5.72;;;13.80;19.90;;;;;;5031755;28;20093;-77
2023/04/06 10:38:37;;;;;;;7.72;5.18;;;13.90;17.10;;;;;;5027009;28;20033;-76
2023/04/06 10:41:05;;;;;;;6.95;5.18;;;13.80;16.40;;;;;;5033702;28;20025;-77
2023/04/06 10:43:36;;;;;;;10.15;6.32;;;13.50;15.20;;;;;;5037583;28;20040;-76
2023/04/06 10:46:04;;;;;;;9.65;5.53;;;13.20;16.80;;;;;;5027009;28;20042;-76
2023/04/06 10:48:40;;;;;;;10.55;5.85;;;13.40;15.60;;;;;;5021743;28;20043;-76
2023/04/06 10:51:13;;;;;;;10.80;5.60;;;13.40;15.60;;;;;;5029683;28;20509;-75
2023/04/06 10:53:45;;;;;;;11.10;6.03;;;13.70;16.10;;;;;;5028442;28;20029;-76
2023/04/06 10:56:13;;;;;;;9.88;5.03;;;13.80;15.90;;;;;;5032233;28;20033;-76
2023/04/06 10:58:50;;;;;;;7.95;4.68;;;13.90;14.40;;;;;;5013534;28;20029;-77
2023/04/06 11:01:18;;;;;;;6.47;5.07;;;14.10;15.40;;;;;;5030735;28;20471;-75
2023/04/06 11:03:46;;;;;;;6.45;4.18;;;14.00;13.70;;;;;;5025083;28;20037;-76
2023/04/06 11:06:19;;;;;;;5.65;4.28;;;14.10;13.80;;;;;;5022284;28;20061;-76
2023/04/06 11:08:45;;;;;;;10.05;5.43;;;14.10;12.40;;;;;;5030743;28;20029;-76
2023/04/06 11:11:18;;;;;;;7.45;5.55;;;14.00;12.70;;;;;;5027945;28;20033;-80
2023/04/06 11:13:47;;;;;;;9.95;5.35;;;14.10;14.10;;;;;;5031946;28;20030;-76
2023/04/06 11:16:14;;;;;;;6.95;4.75;;;14.40;13.40;;;;;;5023524;28;20037;-76
2023/04/06 11:19:07;;;;;;;6.50;4.85;;;14.20;13.10;;;;;;5021372;28;20045;-76
2023/04/06 11:21:39;;;;;;;6.88;4.30;;;14.40;13.80;;;;;;5031001;28;20398;-77
2023/04/06 11:24:10;;;;;;;7.47;4.85;;;14.40;11.90;;;;;;5032461;28;20462;-76
2023/04/06 11:26:45;;;;;;;10.20;5.07;;;14.40;12.70;;;;;;5012929;28;20068;-75
2023/04/06 11:29:12;;;;;;;9.32;4.95;;;14.60;12.80;;;;;;5029582;28;20033;-77
2023/04/06 11:31:40;;;;;;;8.48;5.60;;;14.60;11.90;;;;;;5019433;28;20360;-77
2023/04/06 11:34:11;;;;;;;8.52;5.60;;;14.60;12.00;;;;;;5027906;28;20033;-76
2023/04/06 11:36:41;;;;;;;7.72;6.22;;;14.80;9.70;;;;;;5015977;28;20037;-76
2023/04/06 11:39:07;;;;;;;9.13;5.05;;;14.60;10.90;;;;;;5031432;28;20025;-77
2023/04/06 11:41:33;;;;;;;8.90;6.30;;;14.30;11.00;;;;;;5018873;28;20474;-78
2023/04/06 11:44:03;;;;;;;7.25;5.20;;;14.40;12.20;;;;;;5022043;28;20033;-77
2023/04/06 11:46:29;;;;;;;8.25;5.20;;;14.60;11.60;;;;;;5024251;28;20248;-76
2023/04/06 11:49:01;;;;;;;8.23;5.57;;;14.70;10.50;;;;;;5029387;28;20040;-76
2023/04/06 11:51:27;;;;;;;22.42;12.38;;;14.60;10.50;;;;;;5028490;28;20042;-77
2023/04/06 11:53:55;;;;;;;18.48;9.95;;;14.60;11.30;;;;;;5030455;28;20036;-76
2023/04/06 11:56:29;;;;;;;17.50;11.52;;;14.60;11.00;;;;;;5029747;28;20042;-76
2023/04/06 11:58:57;;;;;;;8.40;6.25;;;14.50;10.50;;;;;;5026479;28;20029;-81
2023/04/06 12:01:25;;;;;;;12.52;6.22;;;14.40;10.40;;;;;;5030733;28;20045;-77
2023/04/06 12:03:52;;;;;;;10.25;9.13;;;14.30;11.50;;;;;;5026715;28;20028;-78
2023/04/06 12:06:19;;;;;;;9.90;8.38;;;14.20;11.20;;;;;;5026790;28;20042;-78
2023/04/06 12:08:45;;;;;;;7.93;7.13;;;14.10;9.40;;;;;;5015196;28;20030;-78
2023/04/06 12:11:12;;;;;;;8.50;5.63;;;14.20;10.40;;;;;;5031177;28;20033;-79
2023/04/06 12:13:38;;;;;;;10.45;5.07;;;14.30;10.00;;;;;;5026672;28;20333;-78
2023/04/06 12:16:05;;;;;;;9.70;5.85;;;14.50;9.90;;;;;;5027942;28;20040;-79
2023/04/06 12:18:31;;;;;;;9.65;5.78;;;14.40;8.60;;;;;;5027551;28;20057;-80
2023/04/06 12:20:57;;;;;;;10.60;5.53;;;14.60;9.20;;;;;;5027700;28;20070;-79
2023/04/06 12:23:24;;;;;;;8.45;5.93;;;14.80;7.80;;;;;;5028196;28;20080;-78
2023/04/06 12:25:50;;;;;;;11.60;5.97;;;14.80;8.70;;;;;;5046705;28;20038;-79
2023/04/06 12:28:17;;;;;;;12.77;6.93;;;14.80;9.10;;;;;;5031500;28;20048;-77
2023/04/06 12:30:43;;;;;;;8.48;5.72;;;15.00;9.10;;;;;;5040508;28;20044;-78
2023/04/06 12:33:09;;;;;;;10.20;6.43;;;15.10;9.40;;;;;;5030108;28;20025;-78
2023/04/06 12:35:37;;;;;;;12.20;6.35;;;14.90;7.90;;;;;;5029676;28;20041;-79
2023/04/06 12:38:03;;;;;;;9.50;6.10;;;14.80;8.60;;;;;;5029159;28;20053;-78
2023/04/06 12:40:29;;;;;;;11.82;6.45;;;14.60;9.30;;;;;;5027937;28;20467;-78
2023/04/06 12:42:55;;;;;;;10.48;6.40;;;14.50;9.30;;;;;;5025317;28;20454;-78
2023/04/06 12:45:22;;;;;;;11.40;6.80;;;14.70;9.60;;;;;;5028418;28;20042;-79
2023/04/06 12:47:48;;;;;;;9.88;5.93;;;14.70;9.50;;;;;;5023627;28;20040;-77
2023/04/06 12:50:14;;;;;;;10.45;7.18;;;14.80;9.40;;;;;;5031569;28;20037;-78
2023/04/06 12:52:40;;;;;;;9.15;7.35;;;14.90;7.70;;;;;;5029951;28;20040;-77
2023/04/06 12:55:07;;;;;;;10.70;7.57;;;14.70;8.70;;;;;;5034680;28;20040;-78
2023/04/06 12:57:33;;;;;;;10.68;6.70;;;14.40;8.70;;;;;;5034164;28;20109;-77